sensor_id;sensor_type;location;lat;lon;timestamp;pressure;altitude;pressure_sealevel;temperature;humidity
9281;BME280;4679;47.966;7.958;2022-12-17T07:32:45;97717.81;;;-8.11;88.93
9281;BME280;4679;47.966;7.958;2022-12-17T07:35:05;97719.81;;;-8.04;88.30
9281;BME280;4679;47.966;7.958;2022-12-17T07:37:24;97721.91;;;-8.09;88.39
9281;BME280;4679;47.966;7.958;2022-12-17T07:39:43;97727.44;;;-8.02;88.89
9281;BME280;4679;47.966;7.958;2022-12-17T07:42:03;97738.09;;;-7.96;88.94
9281;BME280;4679;47.966;7.958;2022-12-17T07:44:22;97739.50;;;-7.92;89.29
9281;BME280;4679;47.966;7.958;2022-12-17T07:46:42;97742.19;;;-7.93;88.98
9281;BME280;4679;47.966;7.958;2022-12-17T07:49:02;97741.75;;;-7.87;88.55
9281;BME280;4679;47.966;7.958;2022-12-17T07:51:21;97746.41;;;-7.92;89.33
9281;BME280;4679;47.966;7.958;2022-12-17T07:53:40;97753.56;;;-7.85;89.16
9281;BME280;4679;47.966;7.958;2022-12-17T07:55:59;97763.06;;;-7.74;88.32
9281;BME280;4679;47.966;7.958;2022-12-17T07:58:19;97769.94;;;-7.86;88.39
9281;BME280;4679;47.966;7.958;2022-12-17T08:00:39;97774.06;;;-7.83;87.84
9281;BME280;4679;47.966;7.958;2022-12-17T08:02:59;97778.16;;;-7.81;88.82
9281;BME280;4679;47.966;7.958;2022-12-17T08:05:20;97782.00;;;-7.86;88.23
9281;BME280;4679;47.966;7.958;2022-12-17T08:07:39;97781.06;;;-7.85;88.26
9281;BME280;4679;47.966;7.958;2022-12-17T08:09:58;97793.88;;;-7.72;88.99
9281;BME280;4679;47.966;7.958;2022-12-17T08:12:17;97794.31;;;-7.78;89.17
9281;BME280;4679;47.966;7.958;2022-12-17T08:14:36;97798.78;;;-7.69;88.30
9281;BME280;4679;47.966;7.958;2022-12-17T08:16:55;97804.66;;;-7.67;88.68
9281;BME280;4679;47.966;7.958;2022-12-17T08:19:14;97802.22;;;-7.58;87.86
9281;BME280;4679;47.966;7.958;2022-12-17T08:21:35;97810.31;;;-7.51;88.77
9281;BME280;4679;47.966;7.958;2022-12-17T08:23:54;97812.63;;;-7.59;88.29
9281;BME280;4679;47.966;7.958;2022-12-17T08:26:24;97811.47;;;-7.44;88.59
9281;BME280;4679;47.966;7.958;2022-12-17T08:28:43;97808.09;;;-7.45;87.95
9281;BME280;4679;47.966;7.958;2022-12-17T08:31:02;97815.03;;;-7.34;88.05
9281;BME280;4679;47.966;7.958;2022-12-17T08:33:27;97820.16;;;-7.45;87.92
9281;BME280;4679;47.966;7.958;2022-12-17T08:35:50;97821.19;;;-7.48;87.90
9281;BME280;4679;47.966;7.958;2022-12-17T08:38:09;97818.50;;;-7.46;87.49
9281;BME280;4679;47.966;7.958;2022-12-17T08:40:28;97802.59;;;-7.40;87.95
9281;BME280;4679;47.966;7.958;2022-12-17T08:42:55;97809.06;;;-7.23;87.70
9281;BME280;4679;47.966;7.958;2022-12-17T08:45:14;97805.66;;;-7.13;88.35
9281;BME280;4679;47.966;7.958;2022-12-17T08:47:33;97797.69;;;-6.98;88.29
9281;BME280;4679;47.966;7.958;2022-12-17T08:49:52;97791.13;;;-7.02;87.73
9281;BME280;4679;47.966;7.958;2022-12-17T08:52:11;97792.53;;;-6.98;87.58
9281;BME280;4679;47.966;7.958;2022-12-17T08:54:30;97784.31;;;-6.81;88.13
9281;BME280;4679;47.966;7.958;2022-12-17T08:56:49;97786.75;;;-6.68;87.89
9281;BME280;4679;47.966;7.958;2022-12-17T08:59:10;97790.72;;;-6.53;87.44
9281;BME280;4679;47.966;7.958;2022-12-17T09:01:29;97783.91;;;-6.43;87.35
9281;BME280;4679;47.966;7.958;2022-12-17T09:03:48;97790.81;;;-6.32;87.05
9281;BME280;4679;47.966;7.958;2022-12-17T09:06:07;97782.78;;;-6.18;87.11
9281;BME280;4679;47.966;7.958;2022-12-17T09:08:27;97790.34;;;-6.06;87.09
9281;BME280;4679;47.966;7.958;2022-12-17T09:10:46;97789.06;;;-6.00;87.22
9281;BME280;4679;47.966;7.958;2022-12-17T09:13:05;97793.88;;;-5.86;87.07
9281;BME280;4679;47.966;7.958;2022-12-17T09:15:34;97789.03;;;-5.79;86.54
9281;BME280;4679;47.966;7.958;2022-12-17T09:17:53;97791.69;;;-5.70;86.87
9281;BME280;4679;47.966;7.958;2022-12-17T09:20:12;97797.88;;;-5.61;87.15
9281;BME280;4679;47.966;7.958;2022-12-17T09:22:31;97800.38;;;-5.50;86.19
9281;BME280;4679;47.966;7.958;2022-12-17T09:24:50;97795.97;;;-5.38;86.58
9281;BME280;4679;47.966;7.958;2022-12-17T09:27:09;97800.63;;;-5.32;86.39
9281;BME280;4679;47.966;7.958;2022-12-17T09:29:28;97797.03;;;-5.20;86.42
9281;BME280;4679;47.966;7.958;2022-12-17T09:31:49;97800.72;;;-5.13;85.94
9281;BME280;4679;47.966;7.958;2022-12-17T09:34:08;97804.72;;;-5.09;86.11
9281;BME280;4679;47.966;7.958;2022-12-17T09:36:27;97797.78;;;-5.08;86.13
9281;BME280;4679;47.966;7.958;2022-12-17T09:38:47;97799.16;;;-5.04;85.54
9281;BME280;4679;47.966;7.958;2022-12-17T09:41:15;97805.88;;;-4.92;86.36
9281;BME280;4679;47.966;7.958;2022-12-17T09:43:41;97808.06;;;-4.87;85.92
9281;BME280;4679;47.966;7.958;2022-12-17T09:46:06;97805.94;;;-4.73;85.66
9281;BME280;4679;47.966;7.958;2022-12-17T09:48:36;97808.19;;;-4.58;85.43
9281;BME280;4679;47.966;7.958;2022-12-17T09:50:56;97815.97;;;-4.49;85.65
9281;BME280;4679;47.966;7.958;2022-12-17T09:53:20;97818.19;;;-4.35;85.28
9281;BME280;4679;47.966;7.958;2022-12-17T09:55:46;97818.63;;;-4.20;85.29
9281;BME280;4679;47.966;7.958;2022-12-17T09:58:17;97808.69;;;-4.15;85.02
9281;BME280;4679;47.966;7.958;2022-12-17T10:00:36;97812.66;;;-4.01;84.88
9281;BME280;4679;47.966;7.958;2022-12-17T10:02:55;97811.28;;;-3.86;84.64
9281;BME280;4679;47.966;7.958;2022-12-17T10:05:20;97807.03;;;-3.77;84.69
9281;BME280;4679;47.966;7.958;2022-12-17T10:07:42;97786.03;;;-3.65;84.76
9281;BME280;4679;47.966;7.958;2022-12-17T10:10:14;97793.41;;;-3.70;84.21
9281;BME280;4679;47.966;7.958;2022-12-17T10:12:33;97790.69;;;-3.68;83.93
9281;BME280;4679;47.966;7.958;2022-12-17T10:14:52;97800.91;;;-3.76;83.78
9281;BME280;4679;47.966;7.958;2022-12-17T10:17:14;97796.81;;;-3.69;84.28
9281;BME280;4679;47.966;7.958;2022-12-17T10:19:36;97787.38;;;-3.61;84.75
9281;BME280;4679;47.966;7.958;2022-12-17T10:22:07;97792.16;;;-3.66;84.36
9281;BME280;4679;47.966;7.958;2022-12-17T10:24:27;97798.72;;;-3.71;83.80
9281;BME280;4679;47.966;7.958;2022-12-17T10:26:47;97800.94;;;-3.67;84.51
9281;BME280;4679;47.966;7.958;2022-12-17T10:29:10;97797.91;;;-3.52;84.01
9281;BME280;4679;47.966;7.958;2022-12-17T10:31:30;97799.94;;;-3.46;84.70
9281;BME280;4679;47.966;7.958;2022-12-17T10:33:54;97806.22;;;-3.39;84.04
9281;BME280;4679;47.966;7.958;2022-12-17T10:36:20;97806.06;;;-3.47;84.35
9281;BME280;4679;47.966;7.958;2022-12-17T10:38:41;97814.28;;;-3.52;83.35
9281;BME280;4679;47.966;7.958;2022-12-17T10:41:00;97808.00;;;-3.69;84.34
9281;BME280;4679;47.966;7.958;2022-12-17T10:43:24;97806.34;;;-3.50;84.14
9281;BME280;4679;47.966;7.958;2022-12-17T10:45:57;97820.81;;;-3.38;83.60
9281;BME280;4679;47.966;7.958;2022-12-17T10:48:18;97830.88;;;-3.35;83.80
9281;BME280;4679;47.966;7.958;2022-12-17T10:50:40;97825.28;;;-3.21;83.45
9281;BME280;4679;47.966;7.958;2022-12-17T10:52:59;97815.81;;;-3.03;83.51
9281;BME280;4679;47.966;7.958;2022-12-17T10:55:22;97825.31;;;-3.40;83.59
9281;BME280;4679;47.966;7.958;2022-12-17T10:57:43;97828.47;;;-3.56;84.50
9281;BME280;4679;47.966;7.958;2022-12-17T11:00:17;97829.72;;;-3.70;84.82
9281;BME280;4679;47.966;7.958;2022-12-17T11:02:38;97840.88;;;-3.79;84.83
9281;BME280;4679;47.966;7.958;2022-12-17T11:04:57;97834.72;;;-4.07;84.32
9281;BME280;4679;47.966;7.958;2022-12-17T11:07:20;97829.50;;;-4.36;85.07
9281;BME280;4679;47.966;7.958;2022-12-17T11:09:43;97825.50;;;-4.49;84.75
9281;BME280;4679;47.966;7.958;2022-12-17T11:12:07;97833.53;;;-4.52;84.71
9281;BME280;4679;47.966;7.958;2022-12-17T11:14:28;97826.00;;;-4.65;85.34
9281;BME280;4679;47.966;7.958;2022-12-17T11:16:51;97822.06;;;-4.59;85.58
9281;BME280;4679;47.966;7.958;2022-12-17T11:19:27;97823.16;;;-4.52;85.31
9281;BME280;4679;47.966;7.958;2022-12-17T11:21:50;97815.19;;;-4.30;85.47
9281;BME280;4679;47.966;7.958;2022-12-17T11:24:12;97825.88;;;-4.54;85.36
9281;BME280;4679;47.966;7.958;2022-12-17T11:26:35;97814.34;;;-4.80;85.46
9281;BME280;4679;47.966;7.958;2022-12-17T11:28:57;97827.41;;;-4.91;86.03
9281;BME280;4679;47.966;7.958;2022-12-17T11:31:36;97820.00;;;-4.96;85.70
9281;BME280;4679;47.966;7.958;2022-12-17T11:34:03;97811.88;;;-4.91;85.65
9281;BME280;4679;47.966;7.958;2022-12-17T11:36:31;97811.19;;;-4.93;85.58
9281;BME280;4679;47.966;7.958;2022-12-17T11:38:59;97807.84;;;-4.75;85.84
9281;BME280;4679;47.966;7.958;2022-12-17T11:41:33;97808.09;;;-4.78;85.84
9281;BME280;4679;47.966;7.958;2022-12-17T11:44:00;97817.91;;;-4.81;85.56
9281;BME280;4679;47.966;7.958;2022-12-17T11:46:31;97817.47;;;-4.86;85.79
9281;BME280;4679;47.966;7.958;2022-12-17T11:48:58;97819.53;;;-4.80;86.37
9281;BME280;4679;47.966;7.958;2022-12-17T11:51:24;97823.91;;;-4.71;86.13
9281;BME280;4679;47.966;7.958;2022-12-17T11:53:53;97832.34;;;-4.79;85.54
9281;BME280;4679;47.966;7.958;2022-12-17T11:56:20;97825.31;;;-4.57;85.43
9281;BME280;4679;47.966;7.958;2022-12-17T11:58:47;97821.88;;;-4.77;85.90
9281;BME280;4679;47.966;7.958;2022-12-17T12:01:16;97821.50;;;-4.63;85.98
9281;BME280;4679;47.966;7.958;2022-12-17T12:03:45;97821.91;;;-4.68;85.79
9281;BME280;4679;47.966;7.958;2022-12-17T12:06:12;97813.97;;;-4.76;86.15
9281;BME280;4679;47.966;7.958;2022-12-17T12:08:46;97818.59;;;-4.79;86.02
9281;BME280;4679;47.966;7.958;2022-12-17T12:11:16;97811.75;;;-4.90;86.33
9281;BME280;4679;47.966;7.958;2022-12-17T12:13:46;97818.41;;;-4.87;86.52
9281;BME280;4679;47.966;7.958;2022-12-17T12:16:14;97814.28;;;-5.00;85.69
9281;BME280;4679;47.966;7.958;2022-12-17T12:18:41;97822.22;;;-4.91;86.90
9281;BME280;4679;47.966;7.958;2022-12-17T12:21:19;97819.03;;;-4.74;86.26
9281;BME280;4679;47.966;7.958;2022-12-17T12:23:47;97825.50;;;-4.49;85.96
9281;BME280;4679;47.966;7.958;2022-12-17T12:26:13;97823.72;;;-4.49;86.49
9281;BME280;4679;47.966;7.958;2022-12-17T12:28:52;97829.91;;;-4.71;86.77
9281;BME280;4679;47.966;7.958;2022-12-17T12:31:24;97817.97;;;-4.62;86.57
9281;BME280;4679;47.966;7.958;2022-12-17T12:33:50;97818.75;;;-4.71;86.45
9281;BME280;4679;47.966;7.958;2022-12-17T12:36:14;97819.53;;;-4.80;86.39
9281;BME280;4679;47.966;7.958;2022-12-17T12:38:38;97825.03;;;-4.74;86.38
9281;BME280;4679;47.966;7.958;2022-12-17T12:41:02;97828.75;;;-4.87;86.42
9281;BME280;4679;47.966;7.958;2022-12-17T12:43:28;97828.50;;;-4.84;86.81
9281;BME280;4679;47.966;7.958;2022-12-17T12:45:53;97837.78;;;-4.82;86.41
9281;BME280;4679;47.966;7.958;2022-12-17T12:48:22;97826.94;;;-4.66;86.62
9281;BME280;4679;47.966;7.958;2022-12-17T12:50:49;97821.47;;;-4.73;86.56
9281;BME280;4679;47.966;7.958;2022-12-17T12:53:11;97834.38;;;-4.82;86.79
9281;BME280;4679;47.966;7.958;2022-12-17T12:55:36;97826.56;;;-4.92;86.38
9281;BME280;4679;47.966;7.958;2022-12-17T12:57:58;97824.81;;;-4.91;86.82
9281;BME280;4679;47.966;7.958;2022-12-17T13:00:28;97830.88;;;-5.02;86.32
9281;BME280;4679;47.966;7.958;2022-12-17T13:02:49;97835.97;;;-4.91;87.22
9281;BME280;4679;47.966;7.958;2022-12-17T13:05:36;97832.09;;;-4.76;86.81
9281;BME280;4679;47.966;7.958;2022-12-17T13:07:38;97832.13;;;-4.66;87.02
9281;BME280;4679;47.966;7.958;2022-12-17T13:09:47;97821.13;;;-4.58;87.03
9281;BME280;4679;47.966;7.958;2022-12-17T13:11:54;97822.66;;;-4.46;87.05
9281;BME280;4679;47.966;7.958;2022-12-17T13:14:00;97826.19;;;-4.47;86.56
9281;BME280;4679;47.966;7.958;2022-12-17T13:16:19;97818.00;;;-4.43;86.13
9281;BME280;4679;47.966;7.958;2022-12-17T13:18:29;97820.88;;;-4.46;86.15
9281;BME280;4679;47.966;7.958;2022-12-17T13:20:34;97825.50;;;-4.40;86.27
9281;BME280;4679;47.966;7.958;2022-12-17T13:22:36;97811.91;;;-4.32;86.40
9281;BME280;4679;47.966;7.958;2022-12-17T13:24:50;97810.28;;;-4.23;86.51
9281;BME280;4679;47.966;7.958;2022-12-17T13:26:52;97821.19;;;-4.20;86.84
9281;BME280;4679;47.966;7.958;2022-12-17T13:28:59;97822.84;;;-4.29;86.24
9281;BME280;4679;47.966;7.958;2022-12-17T13:31:03;97830.81;;;-4.51;86.67
9281;BME280;4679;47.966;7.958;2022-12-17T13:33:17;97841.31;;;-4.43;86.60
9281;BME280;4679;47.966;7.958;2022-12-17T13:35:31;97830.56;;;-4.48;87.01
9281;BME280;4679;47.966;7.958;2022-12-17T13:37:41;97838.34;;;-4.38;87.22
9281;BME280;4679;47.966;7.958;2022-12-17T13:39:50;97846.28;;;-4.30;87.45
9281;BME280;4679;47.966;7.958;2022-12-17T13:41:53;97846.53;;;-4.33;86.80
9281;BME280;4679;47.966;7.958;2022-12-17T13:44:00;97852.91;;;-4.47;86.68
9281;BME280;4679;47.966;7.958;2022-12-17T13:46:03;97865.06;;;-4.38;87.05
9281;BME280;4679;47.966;7.958;2022-12-17T13:48:05;97864.78;;;-4.44;86.97
9281;BME280;4679;47.966;7.958;2022-12-17T13:50:18;97871.19;;;-4.39;87.02
9281;BME280;4679;47.966;7.958;2022-12-17T13:52:23;97861.88;;;-4.51;86.82
9281;BME280;4679;47.966;7.958;2022-12-17T13:54:27;97871.94;;;-4.57;86.65
9281;BME280;4679;47.966;7.958;2022-12-17T13:56:30;97877.06;;;-4.67;87.33
9281;BME280;4679;47.966;7.958;2022-12-17T13:58:32;97876.00;;;-4.65;87.59
9281;BME280;4679;47.966;7.958;2022-12-17T14:00:35;97875.31;;;-4.67;86.94
9281;BME280;4679;47.966;7.958;2022-12-17T14:02:36;97877.25;;;-4.89;86.87
9281;BME280;4679;47.966;7.958;2022-12-17T14:04:39;97875.66;;;-5.02;86.86
9281;BME280;4679;47.966;7.958;2022-12-17T14:06:41;97864.63;;;-5.04;87.25
9281;BME280;4679;47.966;7.958;2022-12-17T14:08:43;97861.78;;;-5.01;87.75
9281;BME280;4679;47.966;7.958;2022-12-17T14:10:50;97860.22;;;-4.92;87.75
9281;BME280;4679;47.966;7.958;2022-12-17T14:13:13;97866.00;;;-5.00;87.60
9281;BME280;4679;47.966;7.958;2022-12-17T14:15:22;97870.38;;;-5.00;87.70
9281;BME280;4679;47.966;7.958;2022-12-17T14:17:26;97872.38;;;-5.04;87.51
9281;BME280;4679;47.966;7.958;2022-12-17T14:19:30;97865.44;;;-5.03;87.48
9281;BME280;4679;47.966;7.958;2022-12-17T14:21:32;97860.09;;;-4.90;87.58
9281;BME280;4679;47.966;7.958;2022-12-17T14:23:34;97865.75;;;-4.76;87.06
9281;BME280;4679;47.966;7.958;2022-12-17T14:25:38;97863.50;;;-4.59;87.80
9281;BME280;4679;47.966;7.958;2022-12-17T14:27:51;97862.38;;;-4.57;87.09
9281;BME280;4679;47.966;7.958;2022-12-17T14:29:53;97861.53;;;-4.67;87.30
9281;BME280;4679;47.966;7.958;2022-12-17T14:31:57;97865.78;;;-4.66;87.78
9281;BME280;4679;47.966;7.958;2022-12-17T14:34:00;97870.31;;;-4.58;87.39
9281;BME280;4679;47.966;7.958;2022-12-17T14:36:08;97871.53;;;-4.53;87.17
9281;BME280;4679;47.966;7.958;2022-12-17T14:38:17;97871.41;;;-4.51;87.19
9281;BME280;4679;47.966;7.958;2022-12-17T14:40:19;97867.72;;;-4.58;87.19
9281;BME280;4679;47.966;7.958;2022-12-17T14:42:23;97867.03;;;-4.61;87.16
9281;BME280;4679;47.966;7.958;2022-12-17T14:44:27;97871.53;;;-4.53;87.48
9281;BME280;4679;47.966;7.958;2022-12-17T14:46:31;97883.16;;;-4.47;88.14
9281;BME280;4679;47.966;7.958;2022-12-17T14:48:33;97888.28;;;-4.57;87.40
9281;BME280;4679;47.966;7.958;2022-12-17T14:50:54;97882.25;;;-4.67;87.45
9281;BME280;4679;47.966;7.958;2022-12-17T14:52:58;97881.44;;;-4.68;87.53
9281;BME280;4679;47.966;7.958;2022-12-17T14:55:00;97893.44;;;-4.67;87.24
9281;BME280;4679;47.966;7.958;2022-12-17T14:57:04;97887.19;;;-4.64;87.76
9281;BME280;4679;47.966;7.958;2022-12-17T14:59:21;97889.91;;;-4.56;88.11
9281;BME280;4679;47.966;7.958;2022-12-17T15:01:24;97885.84;;;-4.58;87.62
9281;BME280;4679;47.966;7.958;2022-12-17T15:03:28;97889.22;;;-4.58;87.65
9281;BME280;4679;47.966;7.958;2022-12-17T15:05:30;97886.91;;;-4.61;87.46
9281;BME280;4679;47.966;7.958;2022-12-17T15:07:32;97881.81;;;-4.72;88.19
9281;BME280;4679;47.966;7.958;2022-12-17T15:09:34;97882.47;;;-4.80;88.04
9281;BME280;4679;47.966;7.958;2022-12-17T15:11:36;97890.03;;;-4.88;87.97
9281;BME280;4679;47.966;7.958;2022-12-17T15:13:38;97891.13;;;-4.90;87.88
9281;BME280;4679;47.966;7.958;2022-12-17T15:15:39;97892.25;;;-4.83;87.72
9281;BME280;4679;47.966;7.958;2022-12-17T15:17:43;97895.84;;;-4.75;88.11
9281;BME280;4679;47.966;7.958;2022-12-17T15:19:45;97903.75;;;-4.76;87.78
9281;BME280;4679;47.966;7.958;2022-12-17T15:21:46;97896.09;;;-4.78;87.99
9281;BME280;4679;47.966;7.958;2022-12-17T15:23:48;97897.22;;;-4.71;87.77
9281;BME280;4679;47.966;7.958;2022-12-17T15:25:51;97897.50;;;-4.74;87.86
9281;BME280;4679;47.966;7.958;2022-12-17T15:27:54;97907.78;;;-4.83;87.90
9281;BME280;4679;47.966;7.958;2022-12-17T15:29:56;97898.38;;;-4.84;88.08
9281;BME280;4679;47.966;7.958;2022-12-17T15:31:58;97904.91;;;-4.90;87.55
9281;BME280;4679;47.966;7.958;2022-12-17T15:34:01;97904.06;;;-4.90;87.91
9281;BME280;4679;47.966;7.958;2022-12-17T15:36:03;97897.88;;;-4.78;88.16
9281;BME280;4679;47.966;7.958;2022-12-17T15:38:05;97913.44;;;-4.69;87.96
9281;BME280;4679;47.966;7.958;2022-12-17T15:40:08;97906.50;;;-4.68;87.69
9281;BME280;4679;47.966;7.958;2022-12-17T15:42:11;97905.41;;;-4.66;88.13
9281;BME280;4679;47.966;7.958;2022-12-17T15:44:30;97896.78;;;-4.76;87.67
9281;BME280;4679;47.966;7.958;2022-12-17T15:46:32;97896.19;;;-4.89;88.50
9281;BME280;4679;47.966;7.958;2022-12-17T15:48:33;97902.94;;;-4.98;87.83
9281;BME280;4679;47.966;7.958;2022-12-17T15:50:37;97901.16;;;-4.97;87.93
9281;BME280;4679;47.966;7.958;2022-12-17T15:52:38;97900.66;;;-4.91;88.34
9281;BME280;4679;47.966;7.958;2022-12-17T15:54:41;97899.88;;;-4.82;88.38
9281;BME280;4679;47.966;7.958;2022-12-17T15:56:50;97903.75;;;-4.76;88.75
9281;BME280;4679;47.966;7.958;2022-12-17T15:58:55;97893.38;;;-4.76;88.16
9281;BME280;4679;47.966;7.958;2022-12-17T16:00:57;97892.13;;;-4.82;88.11
9281;BME280;4679;47.966;7.958;2022-12-17T16:02:59;97889.53;;;-4.82;88.17
9281;BME280;4679;47.966;7.958;2022-12-17T16:05:01;97902.09;;;-4.77;88.59
9281;BME280;4679;47.966;7.958;2022-12-17T16:07:04;97895.03;;;-4.75;88.05
9281;BME280;4679;47.966;7.958;2022-12-17T16:09:06;97899.63;;;-4.79;87.86
9281;BME280;4679;47.966;7.958;2022-12-17T16:11:08;97895.03;;;-4.75;87.77
9281;BME280;4679;47.966;7.958;2022-12-17T16:13:10;97895.22;;;-4.88;88.02
9281;BME280;4679;47.966;7.958;2022-12-17T16:15:12;97892.94;;;-5.02;87.89
9281;BME280;4679;47.966;7.958;2022-12-17T16:17:14;97892.72;;;-4.99;88.58
9281;BME280;4679;47.966;7.958;2022-12-17T16:19:16;97886.59;;;-4.98;88.69
9281;BME280;4679;47.966;7.958;2022-12-17T16:21:22;97884.81;;;-4.98;88.68
9281;BME280;4679;47.966;7.958;2022-12-17T16:23:25;97880.09;;;-4.92;88.81
9281;BME280;4679;47.966;7.958;2022-12-17T16:25:26;97891.81;;;-4.88;88.08
9281;BME280;4679;47.966;7.958;2022-12-17T16:27:28;97882.84;;;-4.84;88.46
9281;BME280;4679;47.966;7.958;2022-12-17T16:29:30;97900.53;;;-4.89;88.19
9281;BME280;4679;47.966;7.958;2022-12-17T16:31:32;97888.66;;;-4.92;88.38
9281;BME280;4679;47.966;7.958;2022-12-17T16:33:35;97896.56;;;-4.93;88.51
9281;BME280;4679;47.966;7.958;2022-12-17T16:35:37;97897.50;;;-4.94;88.54
9281;BME280;4679;47.966;7.958;2022-12-17T16:37:39;97894.53;;;-4.90;88.63
9281;BME280;4679;47.966;7.958;2022-12-17T16:39:42;97893.97;;;-4.93;89.07
9281;BME280;4679;47.966;7.958;2022-12-17T16:41:44;97902.56;;;-4.93;88.24
9281;BME280;4679;47.966;7.958;2022-12-17T16:43:46;97905.72;;;-4.89;88.37
9281;BME280;4679;47.966;7.958;2022-12-17T16:45:49;97899.72;;;-4.90;88.21
9281;BME280;4679;47.966;7.958;2022-12-17T16:47:51;97906.09;;;-4.94;88.72
9281;BME280;4679;47.966;7.958;2022-12-17T16:49:53;97905.03;;;-4.91;88.63
9281;BME280;4679;47.966;7.958;2022-12-17T16:51:55;97902.84;;;-4.86;88.66
9281;BME280;4679;47.966;7.958;2022-12-17T16:53:57;97900.53;;;-4.89;88.55
9281;BME280;4679;47.966;7.958;2022-12-17T16:56:00;97900.25;;;-4.86;88.63
9281;BME280;4679;47.966;7.958;2022-12-17T16:58:02;97895.22;;;-4.88;88.36
9281;BME280;4679;47.966;7.958;2022-12-17T17:00:05;97905.44;;;-4.86;88.73
9281;BME280;4679;47.966;7.958;2022-12-17T17:02:11;97907.47;;;-4.90;88.62
9281;BME280;4679;47.966;7.958;2022-12-17T17:04:15;97906.53;;;-4.89;88.98
9281;BME280;4679;47.966;7.958;2022-12-17T17:06:18;97907.19;;;-4.87;88.72
9281;BME280;4679;47.966;7.958;2022-12-17T17:08:20;97908.47;;;-4.81;89.13
9281;BME280;4679;47.966;7.958;2022-12-17T17:10:22;97904.31;;;-4.93;88.98
9281;BME280;4679;47.966;7.958;2022-12-17T17:12:25;97902.94;;;-4.98;88.89
9281;BME280;4679;47.966;7.958;2022-12-17T17:14:26;97900.22;;;-4.96;88.48
9281;BME280;4679;47.966;7.958;2022-12-17T17:16:28;97905.53;;;-4.98;88.47
9281;BME280;4679;47.966;7.958;2022-12-17T17:18:31;97899.41;;;-4.97;88.28
9281;BME280;4679;47.966;7.958;2022-12-17T17:20:33;97902.19;;;-5.09;88.78
9281;BME280;4679;47.966;7.958;2022-12-17T17:22:34;97906.78;;;-5.13;88.92
9281;BME280;4679;47.966;7.958;2022-12-17T17:24:36;97907.03;;;-5.16;88.63
9281;BME280;4679;47.966;7.958;2022-12-17T17:26:38;97901.13;;;-5.07;88.66
9281;BME280;4679;47.966;7.958;2022-12-17T17:28:43;97910.06;;;-5.11;88.66
9281;BME280;4679;47.966;7.958;2022-12-17T17:30:45;97904.84;;;-5.20;88.89
9281;BME280;4679;47.966;7.958;2022-12-17T17:32:47;97905.78;;;-5.21;88.67
9281;BME280;4679;47.966;7.958;2022-12-17T17:34:49;97898.50;;;-5.27;89.32
9281;BME280;4679;47.966;7.958;2022-12-17T17:36:50;97894.41;;;-5.30;89.55
9281;BME280;4679;47.966;7.958;2022-12-17T17:38:56;97897.63;;;-5.38;88.91
9281;BME280;4679;47.966;7.958;2022-12-17T17:40:59;97904.31;;;-5.35;89.16
9281;BME280;4679;47.966;7.958;2022-12-17T17:43:01;97895.41;;;-5.42;89.03
9281;BME280;4679;47.966;7.958;2022-12-17T17:45:05;97907.06;;;-5.48;89.33
9281;BME280;4679;47.966;7.958;2022-12-17T17:47:08;97906.25;;;-5.48;88.95
9281;BME280;4679;47.966;7.958;2022-12-17T17:49:10;97909.53;;;-5.46;89.01
9281;BME280;4679;47.966;7.958;2022-12-17T17:51:16;97907.69;;;-5.55;89.20
9281;BME280;4679;47.966;7.958;2022-12-17T17:53:18;97909.47;;;-5.56;88.78
9281;BME280;4679;47.966;7.958;2022-12-17T17:55:20;97921.91;;;-5.61;89.01
9281;BME280;4679;47.966;7.958;2022-12-17T17:57:22;97931.44;;;-5.61;89.04
9281;BME280;4679;47.966;7.958;2022-12-17T17:59:23;97932.66;;;-5.65;89.42
9281;BME280;4679;47.966;7.958;2022-12-17T18:01:28;97933.13;;;-5.72;89.04
9281;BME280;4679;47.966;7.958;2022-12-17T18:03:30;97935.34;;;-5.67;89.33
9281;BME280;4679;47.966;7.958;2022-12-17T18:05:36;97931.66;;;-5.64;89.04
9281;BME280;4679;47.966;7.958;2022-12-17T18:07:37;97939.19;;;-5.61;89.53
9281;BME280;4679;47.966;7.958;2022-12-17T18:09:39;97939.44;;;-5.64;89.25
9281;BME280;4679;47.966;7.958;2022-12-17T18:11:42;97936.72;;;-5.63;89.21
9281;BME280;4679;47.966;7.958;2022-12-17T18:13:44;97943.91;;;-5.67;89.46
9281;BME280;4679;47.966;7.958;2022-12-17T18:15:59;97950.63;;;-5.75;89.41
9281;BME280;4679;47.966;7.958;2022-12-17T18:18:02;97951.78;;;-5.68;89.38
9281;BME280;4679;47.966;7.958;2022-12-17T18:20:05;97951.53;;;-5.65;88.97
9281;BME280;4679;47.966;7.958;2022-12-17T18:22:08;97956.97;;;-5.68;89.49
9281;BME280;4679;47.966;7.958;2022-12-17T18:24:12;97957.31;;;-5.73;89.28
9281;BME280;4679;47.966;7.958;2022-12-17T18:26:16;97967.56;;;-5.82;89.31
9281;BME280;4679;47.966;7.958;2022-12-17T18:28:18;97958.09;;;-5.93;89.50
9281;BME280;4679;47.966;7.958;2022-12-17T18:30:20;97966.53;;;-5.91;89.20
9281;BME280;4679;47.966;7.958;2022-12-17T18:32:22;97980.16;;;-5.89;89.81
9281;BME280;4679;47.966;7.958;2022-12-17T18:34:25;97984.19;;;-5.96;89.35
9281;BME280;4679;47.966;7.958;2022-12-17T18:36:29;97987.09;;;-6.00;89.39
9281;BME280;4679;47.966;7.958;2022-12-17T18:38:31;97992.16;;;-5.99;89.58
9281;BME280;4679;47.966;7.958;2022-12-17T18:40:34;97986.75;;;-5.96;89.32
9281;BME280;4679;47.966;7.958;2022-12-17T18:42:36;97991.31;;;-5.88;89.61
9281;BME280;4679;47.966;7.958;2022-12-17T18:44:55;97991.06;;;-5.85;89.62
9281;BME280;4679;47.966;7.958;2022-12-17T18:46:57;97989.41;;;-5.86;89.53
9281;BME280;4679;47.966;7.958;2022-12-17T18:49:01;97983.19;;;-5.84;90.05
9281;BME280;4679;47.966;7.958;2022-12-17T18:51:05;97985.53;;;-5.81;89.61
9281;BME280;4679;47.966;7.958;2022-12-17T18:53:06;97988.78;;;-5.79;89.46
9281;BME280;4679;47.966;7.958;2022-12-17T18:55:09;97991.38;;;-5.79;89.52
9281;BME280;4679;47.966;7.958;2022-12-17T18:57:11;97994.44;;;-5.74;89.43
9281;BME280;4679;47.966;7.958;2022-12-17T18:59:14;97987.03;;;-5.67;89.67
9281;BME280;4679;47.966;7.958;2022-12-17T19:01:18;97986.09;;;-5.66;89.24
9281;BME280;4679;47.966;7.958;2022-12-17T19:03:20;97992.88;;;-5.65;89.22
9281;BME280;4679;47.966;7.958;2022-12-17T19:05:22;97991.59;;;-5.59;89.50
9281;BME280;4679;47.966;7.958;2022-12-17T19:07:25;97993.03;;;-5.67;89.79
9281;BME280;4679;47.966;7.958;2022-12-17T19:09:28;97988.22;;;-5.71;89.58
9281;BME280;4679;47.966;7.958;2022-12-17T19:11:34;97991.16;;;-5.76;89.74
9281;BME280;4679;47.966;7.958;2022-12-17T19:13:36;98000.88;;;-5.79;89.35
9281;BME280;4679;47.966;7.958;2022-12-17T19:15:38;98004.09;;;-5.87;89.38
9281;BME280;4679;47.966;7.958;2022-12-17T19:17:40;98012.94;;;-5.89;89.35
9281;BME280;4679;47.966;7.958;2022-12-17T19:19:41;98012.94;;;-6.00;89.24
9281;BME280;4679;47.966;7.958;2022-12-17T19:21:43;98025.25;;;-6.04;89.65
9281;BME280;4679;47.966;7.958;2022-12-17T19:23:47;98023.72;;;-6.07;89.58
9281;BME280;4679;47.966;7.958;2022-12-17T19:25:49;98023.94;;;-6.10;89.55
9281;BME280;4679;47.966;7.958;2022-12-17T19:27:51;98025.03;;;-6.12;89.71
9281;BME280;4679;47.966;7.958;2022-12-17T19:29:52;98024.44;;;-6.16;89.66
9281;BME280;4679;47.966;7.958;2022-12-17T19:31:56;98035.47;;;-6.14;89.77